Terminal Aerodrome Forecast
Issued by NWS

Home | Current Version | Previous Version | Text Only | Print | Product List | Glossary On
Versions: 1 2 3 4 5 6 7 8 9 10 11 12 13
000
FTUS44 KJAN 291900 AAA
TAFHKS
TAF AMD
KHKS 291928Z 2919/3018 21013G25KT P6SM BKN120
     FM292100 28012G24KT P6SM BKN035
     FM300100 34008KT P6SM OVC020
     FM300700 36007KT P6SM BKN050
     FM301200 03007KT P6SM SCT250=

USA.gov is the U.S. government's official web portal to all federal, state and local government web resources and services.